Time;durP1;ratioP1;P1;durP2;ratioP2;P2;SDS_P1;SDS_P2;PMS_P1;PMS_P2;Temp;Humidity;BMP_temperature;BMP_pressure;BME280_temperature;BME280_humidity;BME280_pressure;Samples;Min_cycle;Max_cycle;Signal;HPM_P1;HPM_P2
2022/11/23 02:22:26;;;;;;;15.90;6.63;;;;;;;-0.40;100.00;100096.92;1754460;81;21801;-78
2022/11/23 02:24:54;;;;;;;18.00;7.33;;;;;;;-0.38;100.00;100095.50;1689690;84;21069;-77
2022/11/23 02:27:21;;;;;;;14.57;7.03;;;;;;;-0.37;100.00;100102.98;1695146;84;21022;-78
2022/11/23 02:29:50;;;;;;;13.43;6.10;;;;;;;-0.35;100.00;100110.38;1694561;84;21014;-79
2022/11/23 02:32:21;;;;;;;16.00;6.60;;;;;;;-0.33;100.00;100097.86;1686558;83;21074;-77
2022/11/23 02:34:49;;;;;;;18.93;7.17;;;;;;;-0.32;100.00;100111.51;1687472;83;21026;-78
2022/11/23 02:37:16;;;;;;;12.00;5.60;;;;;;;-0.32;100.00;100095.56;1694111;83;21002;-78
2022/11/23 02:39:49;;;;;;;14.17;6.17;;;;;;;-0.32;100.00;100102.21;1692512;84;21050;-78
2022/11/23 02:42:16;;;;;;;13.80;5.80;;;;;;;-0.31;100.00;100106.59;1694101;84;21034;-76
2022/11/23 02:45:24;;;;;;;12.10;5.63;;;;;;;-0.29;100.00;100112.16;1696988;84;21327;-79
2022/11/23 02:47:50;;;;;;;11.83;5.30;;;;;;;-0.25;100.00;100112.36;1692478;83;21066;-78
2022/11/23 02:50:19;;;;;;;12.10;5.97;;;;;;;-0.23;100.00;100093.63;1699022;84;21654;-78
2022/11/23 02:52:46;;;;;;;12.23;5.70;;;;;;;-0.22;100.00;100100.17;1691466;84;21543;-79
2022/11/23 02:55:15;;;;;;;13.93;6.40;;;;;;;-0.20;100.00;100112.88;1668670;83;21052;-78
2022/11/23 02:57:42;;;;;;;12.20;5.03;;;;;;;-0.17;100.00;100114.50;1690993;84;21097;-79
2022/11/23 03:00:11;;;;;;;12.37;5.80;;;;;;;-0.16;100.00;100106.05;1691408;83;21026;-79
2022/11/23 03:02:39;;;;;;;10.97;5.17;;;;;;;-0.18;100.00;100104.81;1669412;84;21058;-78
2022/11/23 03:05:07;;;;;;;12.87;5.23;;;;;;;-0.20;100.00;100110.23;1650642;85;21078;-79
2022/11/23 03:07:35;;;;;;;10.60;5.47;;;;;;;-0.17;100.00;100112.33;1661526;86;21050;-79
2022/11/23 03:10:03;;;;;;;11.27;5.17;;;;;;;-0.17;100.00;100113.17;1652894;85;21034;-79
2022/11/23 03:12:30;;;;;;;10.83;5.10;;;;;;;-0.15;100.00;100113.08;1661466;86;21163;-78
2022/11/23 03:14:58;;;;;;;11.17;5.13;;;;;;;-0.13;100.00;100108.02;1663634;86;21046;-79
2022/11/23 03:17:26;;;;;;;9.87;4.37;;;;;;;-0.12;100.00;100111.08;1651495;86;21089;-78
2022/11/23 03:19:54;;;;;;;13.33;5.37;;;;;;;-0.10;100.00;100110.98;1654085;85;21599;-79
2022/11/23 03:22:21;;;;;;;12.30;5.40;;;;;;;-0.08;100.00;100113.05;1731580;82;21491;-79
2022/11/23 03:24:49;;;;;;;8.47;4.63;;;;;;;-0.07;100.00;100114.73;1735914;81;21072;-78
2022/11/23 03:27:16;;;;;;;10.80;4.50;;;;;;;-0.06;100.00;100123.09;1739044;81;20993;-78
2022/11/23 03:29:44;;;;;;;12.20;5.70;;;;;;;-0.04;100.00;100130.49;1738622;81;21072;-79
2022/11/23 03:32:13;;;;;;;12.70;5.60;;;;;;;-0.06;100.00;100133.25;1731676;81;21029;-79
2022/11/23 03:34:40;;;;;;;10.23;5.20;;;;;;;-0.07;100.00;100138.66;1730012;81;21050;-79
2022/11/23 03:37:11;;;;;;;10.80;5.53;;;;;;;-0.08;100.00;100142.29;1735084;81;21033;-79
2022/11/23 03:39:40;;;;;;;10.37;5.20;;;;;;;-0.08;100.00;100149.78;1738434;81;21081;-77
2022/11/23 03:42:22;;;;;;;13.58;5.92;;;;;;;-0.07;100.00;100153.28;1732517;82;21003;-79
2022/11/23 03:44:48;;;;;;;9.33;4.77;;;;;;;-0.11;100.00;100154.45;1734154;81;21049;-79
2022/11/23 03:47:15;;;;;;;13.30;5.73;;;;;;;-0.11;100.00;100160.61;1733897;82;21030;-78
2022/11/23 03:49:43;;;;;;;13.57;5.57;;;;;;;-0.11;100.00;100163.27;1731040;81;21076;-79
2022/11/23 03:52:10;;;;;;;13.30;5.90;;;;;;;-0.12;100.00;100170.03;1730626;81;21546;-77
2022/11/23 03:54:38;;;;;;;14.40;5.97;;;;;;;-0.12;100.00;100166.89;1735428;81;21029;-79
2022/11/23 03:57:06;;;;;;;11.17;5.37;;;;;;;-0.10;100.00;100164.98;1730866;81;21062;-79
2022/11/23 03:59:34;;;;;;;11.63;5.30;;;;;;;-0.12;100.00;100164.72;1731116;81;21018;-80
2022/11/23 04:02:02;;;;;;;11.47;5.20;;;;;;;-0.09;100.00;100171.14;1734764;81;21723;-79
2022/11/23 04:04:33;;;;;;;9.77;5.00;;;;;;;-0.07;100.00;100172.77;1738128;81;21527;-78
2022/11/23 04:07:13;;;;;;;12.10;5.57;;;;;;;-0.05;100.00;100179.31;1727008;82;21036;-78
2022/11/23 04:09:44;;;;;;;11.77;4.90;;;;;;;-0.04;100.00;100178.34;1732067;81;21029;-79
2022/11/23 04:12:26;;;;;;;12.40;5.73;;;;;;;-0.03;100.00;100184.05;1730022;81;21053;-78
2022/11/23 04:14:55;;;;;;;11.10;5.07;;;;;;;0.00;100.00;100183.86;1732306;81;21148;-80
2022/11/23 04:17:23;;;;;;;8.73;4.47;;;;;;;0.01;100.00;100189.53;1735534;81;21030;-78
2022/11/23 04:19:51;;;;;;;12.77;5.73;;;;;;;0.02;100.00;100189.92;1740203;81;21089;-79
2022/11/23 04:22:18;;;;;;;11.90;5.30;;;;;;;0.07;100.00;100200.23;1738130;81;21041;-79
2022/11/23 04:24:46;;;;;;;13.07;5.83;;;;;;;0.07;100.00;100189.60;1728255;81;21025;-79
2022/11/23 04:27:13;;;;;;;11.43;5.53;;;;;;;0.05;100.00;100202.15;1735349;81;21023;-80
2022/11/23 04:29:42;;;;;;;10.07;5.17;;;;;;;0.05;100.00;100200.82;1736276;81;21010;-79
2022/11/23 04:32:10;;;;;;;10.43;4.80;;;;;;;0.06;100.00;100195.89;1738575;81;21001;-79
2022/11/23 04:34:38;;;;;;;10.00;5.03;;;;;;;0.07;100.00;100198.45;1724674;82;21124;-78
2022/11/23 04:37:08;;;;;;;12.80;5.30;;;;;;;0.06;100.00;100187.92;1738576;82;21045;-79
2022/11/23 04:39:36;;;;;;;11.37;5.80;;;;;;;0.05;100.00;100195.50;1734037;81;21042;-78
2022/11/23 04:42:11;;;;;;;14.57;5.97;;;;;;;0.06;100.00;100194.56;1664454;84;21524;-79
2022/11/23 04:44:39;;;;;;;13.97;6.10;;;;;;;0.07;100.00;100192.27;1660742;84;21019;-80
2022/11/23 04:47:08;;;;;;;15.00;6.17;;;;;;;0.06;100.00;100186.59;1658619;84;21122;-79
2022/11/23 04:49:36;;;;;;;12.87;5.70;;;;;;;0.03;100.00;100189.44;1664570;84;21034;-79
2022/11/23 04:52:03;;;;;;;12.27;5.40;;;;;;;0.02;100.00;100190.38;1661426;85;21007;-80
2022/11/23 04:54:32;;;;;;;14.10;5.77;;;;;;;-0.02;100.00;100194.59;1661570;85;21046;-80
2022/11/23 04:57:01;;;;;;;11.27;5.73;;;;;;;0.01;100.00;100203.31;1665979;85;21022;-78
2022/11/23 04:59:30;;;;;;;10.90;5.60;;;;;;;0.03;100.00;100206.72;1664008;85;21020;-77
2022/11/23 05:01:58;;;;;;;11.93;5.30;;;;;;;0.04;100.00;100220.41;1663887;84;21066;-78
2022/11/23 05:04:39;;;;;;;9.63;5.23;;;;;;;0.01;100.00;100223.25;1593257;88;21074;-78
2022/11/23 05:07:07;;;;;;;12.23;5.40;;;;;;;-0.01;100.00;100220.69;1597194;90;21104;-79
2022/11/23 05:09:35;;;;;;;13.83;5.80;;;;;;;0.01;100.00;100228.56;1616340;87;21647;-79
2022/11/23 05:12:17;;;;;;;10.57;5.33;;;;;;;0.03;100.00;100229.31;1595552;87;21591;-79
2022/11/23 05:14:44;;;;;;;9.63;4.90;;;;;;;0.04;100.00;100233.21;1593319;88;21092;-80
2022/11/23 05:17:17;;;;;;;10.00;4.80;;;;;;;0.06;100.00;100237.11;1591259;87;21032;-77
2022/11/23 05:19:45;;;;;;;12.60;5.60;;;;;;;0.07;100.00;100226.83;1627000;85;21029;-78
2022/11/23 05:22:15;;;;;;;15.53;5.77;;;;;;;0.07;100.00;100233.02;1652320;85;21072;-81
2022/11/23 05:24:42;;;;;;;10.37;4.80;;;;;;;0.08;100.00;100238.70;1648352;85;21065;-78
2022/11/23 05:27:11;;;;;;;11.90;5.63;;;;;;;0.09;100.00;100250.17;1643647;85;21101;-78
2022/11/23 05:29:38;;;;;;;10.33;5.23;;;;;;;0.07;100.00;100249.43;1649771;86;21045;-79
2022/11/23 05:32:06;;;;;;;14.57;5.83;;;;;;;0.07;100.00;100258.73;1649545;85;21650;-78
2022/11/23 05:34:34;;;;;;;15.03;5.77;;;;;;;0.06;100.00;100257.89;1643083;86;21056;-77
2022/11/23 05:37:01;;;;;;;15.63;6.47;;;;;;;0.10;100.00;100253.23;1644460;85;21598;-78
2022/11/23 05:39:29;;;;;;;17.10;7.47;;;;;;;0.12;100.00;100257.48;1650958;83;21566;-79
2022/11/23 05:41:57;;;;;;;21.97;9.60;;;;;;;0.14;100.00;100264.03;1729186;82;21560;-77
2022/11/23 05:44:25;;;;;;;18.47;8.00;;;;;;;0.15;100.00;100259.11;1663927;84;21054;-79
2022/11/23 05:46:52;;;;;;;16.17;7.60;;;;;;;0.12;100.00;100264.13;1690369;85;21054;-78
2022/11/23 05:49:23;;;;;;;15.53;7.17;;;;;;;0.10;100.00;100267.37;1690666;85;21030;-78
2022/11/23 05:51:53;;;;;;;15.07;6.93;;;;;;;0.09;100.00;100271.45;1689529;85;21018;-79
2022/11/23 05:54:20;;;;;;;16.17;7.07;;;;;;;0.08;100.00;100265.29;1692509;85;21098;-79
2022/11/23 05:56:51;;;;;;;14.53;6.60;;;;;;;0.09;100.00;100280.76;1693344;85;21531;-75
2022/11/23 05:59:20;;;;;;;17.77;7.00;;;;;;;0.10;100.00;100274.50;1692044;85;21073;-78
2022/11/23 06:01:51;;;;;;;14.73;6.47;;;;;;;0.12;100.00;100279.24;1690919;85;21519;-79
2022/11/23 06:04:20;;;;;;;14.40;6.33;;;;;;;0.14;100.00;100286.19;1688897;85;21082;-78
2022/11/23 06:06:47;;;;;;;15.77;6.20;;;;;;;0.13;100.00;100291.59;1685794;84;21053;-78
2022/11/23 06:09:14;;;;;;;28.80;12.37;;;;;;;0.10;100.00;100292.62;1688338;85;21017;-70
2022/11/23 06:11:43;;;;;;;22.17;9.33;;;;;;;0.09;100.00;100290.94;1677670;84;20998;-71
2022/11/23 06:14:13;;;;;;;21.03;9.20;;;;;;;0.13;100.00;100290.27;1691553;84;21105;-72
2022/11/23 07:01:08;;;;;;;15.47;7.37;;;;;;;0.17;100.00;100479.27;1816537;77;22422;-82
2022/11/23 07:03:39;;;;;;;15.95;6.55;;;;;;;0.25;100.00;100317.86;1810251;79;21065;-80
2022/11/23 07:06:09;;;;;;;21.33;8.50;;;;;;;0.28;100.00;100297.73;1801870;79;21562;-75
2022/11/23 07:08:42;;;;;;;20.87;8.47;;;;;;;0.32;100.00;100300.09;1813416;79;20976;-76
2022/11/23 07:11:10;;;;;;;;;;;;;;;0.38;100.00;100304.16;1810705;79;21084;-74
2022/11/23 07:13:39;;;;;;;17.00;6.90;;;;;;;0.40;100.00;100311.56;1812615;79;20141;-76
2022/11/23 07:16:06;;;;;;;15.57;7.07;;;;;;;0.44;100.00;100304.23;1813308;79;21154;-78
2022/11/23 07:18:33;;;;;;;23.33;9.80;;;;;;;0.46;100.00;100303.66;1809967;79;21006;-76
2022/11/23 07:21:00;;;;;;;24.17;10.37;;;;;;;0.50;100.00;100303.85;1793845;79;21500;-75
2022/11/23 07:23:27;;;;;;;26.03;11.20;;;;;;;0.52;100.00;100308.59;1792779;80;21007;-78
2022/11/23 07:25:54;;;;;;;33.87;14.10;;;;;;;0.51;100.00;100298.89;1782661;80;20999;-75
2022/11/23 07:28:22;;;;;;;28.07;11.90;;;;;;;0.46;100.00;100299.21;1764322;80;21117;-73
2022/11/23 07:30:51;;;;;;;24.93;9.93;;;;;;;0.45;100.00;100306.80;1782002;79;21488;-75
2022/11/23 07:33:18;;;;;;;19.67;8.27;;;;;;;0.47;100.00;100314.20;1790063;80;21590;-75
2022/11/23 07:35:47;;;;;;;19.67;8.37;;;;;;;0.48;100.00;100308.39;1792410;80;21055;-75
2022/11/23 07:38:14;;;;;;;16.30;7.37;;;;;;;0.43;100.00;100310.05;1790701;80;21540;-77
2022/11/23 07:40:43;;;;;;;19.10;7.57;;;;;;;0.42;100.00;100313.64;1792420;80;21062;-75
2022/11/23 07:43:11;;;;;;;14.67;6.53;;;;;;;0.43;100.00;100322.50;1787801;80;21007;-76
2022/11/23 07:45:39;;;;;;;18.87;8.37;;;;;;;0.42;100.00;100308.81;1792456;80;21599;-75
2022/11/23 07:48:08;;;;;;;16.90;7.70;;;;;;;0.41;100.00;100324.38;1792506;80;21567;-75
2022/11/23 07:50:36;;;;;;;30.20;13.53;;;;;;;0.44;100.00;100318.87;1792540;80;21067;-74
2022/11/23 07:53:04;;;;;;;30.20;16.00;;;;;;;0.46;100.00;100310.31;1792527;80;21050;-75
2022/11/23 07:55:32;;;;;;;24.47;10.73;;;;;;;0.44;100.00;100315.72;1807000;79;20975;-74
2022/11/23 07:57:59;;;;;;;19.33;8.30;;;;;;;0.48;100.00;100320.37;1808641;79;21322;-75
2022/11/23 08:00:27;;;;;;;35.10;16.63;;;;;;;0.53;100.00;100315.61;1810351;79;21094;-74
2022/11/23 08:02:53;;;;;;;23.77;10.83;;;;;;;0.56;100.00;100311.42;1812060;79;21135;-76
2022/11/23 08:05:20;;;;;;;24.87;9.93;;;;;;;0.60;100.00;100318.73;1812156;79;21508;-72
2022/11/23 08:07:47;;;;;;;25.90;10.13;;;;;;;0.60;100.00;100307.59;1811715;79;21054;-72
2022/11/23 08:10:15;;;;;;;22.93;11.00;;;;;;;0.53;100.00;100304.96;1811413;79;21057;-74
2022/11/23 08:12:41;;;;;;;16.33;8.03;;;;;;;0.54;100.00;100303.53;1811042;79;21503;-72
2022/11/23 08:15:10;;;;;;;16.17;7.10;;;;;;;0.57;100.00;100299.84;1810935;79;21526;-75
2022/11/23 08:17:39;;;;;;;14.30;6.43;;;;;;;0.59;100.00;100303.24;1811274;79;21081;-74
2022/11/23 08:20:07;;;;;;;13.43;6.80;;;;;;;0.58;100.00;100296.20;1809339;79;21101;-74
2022/11/23 08:22:35;;;;;;;14.07;6.93;;;;;;;0.59;100.00;100294.42;1810770;79;21574;-76
2022/11/23 08:25:01;;;;;;;14.23;6.80;;;;;;;0.55;100.00;100298.60;1810903;79;21464;-77
2022/11/23 08:27:28;;;;;;;13.60;6.53;;;;;;;0.53;100.00;100298.31;1809128;79;21057;-77
2022/11/23 08:29:55;;;;;;;14.07;6.37;;;;;;;0.47;100.00;100290.74;1803295;79;21124;-76
2022/11/23 08:32:22;;;;;;;15.73;7.57;;;;;;;0.52;100.00;100285.98;1787299;80;21028;-74
2022/11/23 08:34:48;;;;;;;17.60;8.00;;;;;;;0.57;100.00;100282.54;1787632;80;20981;-75
2022/11/23 08:37:15;;;;;;;18.63;7.30;;;;;;;0.65;100.00;100289.52;1787547;80;21029;-75
2022/11/23 08:39:41;;;;;;;15.57;7.07;;;;;;;0.71;100.00;100291.79;1788154;80;21000;-74
2022/11/23 08:42:08;;;;;;;12.10;5.87;;;;;;;0.74;100.00;100292.92;1788446;80;21513;-75
2022/11/23 08:44:34;;;;;;;12.33;6.27;;;;;;;0.81;100.00;100300.49;1788313;80;21004;-75
2022/11/23 08:47:01;;;;;;;11.87;5.80;;;;;;;0.85;100.00;100294.00;1788172;80;21551;-75
2022/11/23 08:49:28;;;;;;;11.17;5.70;;;;;;;0.85;100.00;100296.20;1788401;80;21036;-75
2022/11/23 08:51:54;;;;;;;14.77;7.20;;;;;;;0.86;100.00;100295.23;1788276;80;21012;-74
2022/11/23 08:54:23;;;;;;;13.53;6.73;;;;;;;0.90;100.00;100300.75;1799527;79;20991;-74
2022/11/23 08:56:50;;;;;;;14.97;6.63;;;;;;;0.93;100.00;100288.53;1815944;79;21038;-75
2022/11/23 08:59:17;;;;;;;12.50;6.27;;;;;;;0.98;100.00;100292.72;1816709;79;20995;-75
2022/11/23 09:01:44;;;;;;;13.70;6.23;;;;;;;0.98;100.00;100291.39;1812710;79;21031;-75
2022/11/23 09:04:11;;;;;;;16.67;6.87;;;;;;;0.91;100.00;100282.46;1813670;79;21534;-76
2022/11/23 09:06:39;;;;;;;14.07;6.13;;;;;;;0.87;100.00;100286.30;1813384;79;20991;-76
2022/11/23 09:09:05;;;;;;;11.30;5.80;;;;;;;0.89;100.00;100275.55;1812824;79;21011;-73
2022/11/23 09:11:33;;;;;;;15.33;6.47;;;;;;;0.90;100.00;100283.44;1812566;79;20983;-77
2022/11/23 09:14:00;;;;;;;13.20;6.43;;;;;;;0.92;100.00;100273.98;1813225;79;20991;-77
2022/11/23 09:16:27;;;;;;;13.83;6.37;;;;;;;0.92;100.00;100280.19;1813574;79;21003;-79
2022/11/23 09:18:57;;;;;;;19.57;8.30;;;;;;;0.98;100.00;100283.40;1812674;79;20967;-77
2022/11/23 09:21:28;;;;;;;21.37;9.27;;;;;;;0.97;100.00;100265.70;1813152;79;21022;-78
2022/11/23 09:23:53;;;;;;;24.13;9.97;;;;;;;1.00;100.00;100263.69;1808836;79;21019;-77
2022/11/23 09:26:19;;;;;;;17.90;7.43;;;;;;;1.09;100.00;100263.53;1812690;79;21552;-79
2022/11/23 09:28:46;;;;;;;27.90;11.10;;;;;;;1.13;100.00;100263.69;1813408;79;21046;-78
2022/11/23 09:31:13;;;;;;;30.83;13.17;;;;;;;1.19;100.00;100259.29;1787535;79;21123;-77
2022/11/23 09:33:41;;;;;;;50.03;17.20;;;;;;;1.22;100.00;100268.87;1784469;80;21016;-71
2022/11/23 09:36:08;;;;;;;28.07;10.20;;;;;;;1.26;100.00;100277.89;1784265;80;21039;-74
2022/11/23 09:38:35;;;;;;;23.03;9.13;;;;;;;1.30;100.00;100274.05;1784448;80;21035;-74
2022/11/23 09:41:37;;;;;;;24.17;9.53;;;;;;;1.29;100.00;100275.48;1784506;80;21021;-72
2022/11/23 09:44:41;;;;;;;26.47;12.47;;;;;;;1.25;100.00;100284.65;1785260;80;20989;-77
2022/11/23 09:47:35;;;;;;;16.87;7.07;;;;;;;1.24;100.00;100262.95;1784979;80;21040;-76
2022/11/23 09:50:16;;;;;;;21.05;9.98;;;;;;;1.20;100.00;100268.13;1775566;80;21532;-78
2022/11/23 09:52:45;;;;;;;10.63;5.83;;;;;;;1.09;100.00;100271.03;1787972;80;21019;-79
2022/11/23 09:55:18;;;;;;;14.60;6.33;;;;;;;1.07;100.00;100282.28;1806578;79;20953;-74
2022/11/23 09:57:45;;;;;;;14.33;6.60;;;;;;;1.05;100.00;100280.20;1810782;79;21004;-76
2022/11/23 10:00:20;;;;;;;16.47;7.23;;;;;;;1.04;100.00;100293.62;1816539;79;21043;-79
2022/11/23 10:02:48;;;;;;;13.10;6.97;;;;;;;1.00;100.00;100296.12;1781007;79;21012;-78
2022/11/23 10:05:22;;;;;;;11.33;5.93;;;;;;;0.92;100.00;100288.17;1781613;80;21474;-78
2022/11/23 10:08:19;;;;;;;17.23;7.93;;;;;;;0.87;100.00;100275.65;1676935;85;21610;-76
2022/11/23 10:11:19;;;;;;;14.50;6.53;;;;;;;0.86;100.00;100280.58;1623844;88;21098;-79
2022/11/23 10:14:22;;;;;;;16.97;7.33;;;;;;;0.90;100.00;100274.58;1591742;90;21135;-74
2022/11/23 11:37:08;;;;;;;18.73;7.10;;;;;;;1.53;100.00;100240.11;1567479;90;21578;-75
2022/11/23 11:39:47;;;;;;;15.17;6.47;;;;;;;1.58;100.00;100231.30;1572742;91;21116;-75
2022/11/23 11:42:29;;;;;;;12.67;6.83;;;;;;;1.63;100.00;100237.14;1578281;88;21056;-81
2022/11/23 11:45:14;;;;;;;15.23;6.77;;;;;;;1.69;100.00;100242.05;1500325;95;21116;-83
2022/11/23 11:47:58;;;;;;;17.43;8.10;;;;;;;1.78;100.00;100240.05;1375697;103;22874;-82
2022/11/23 11:50:35;;;;;;;18.03;8.70;;;;;;;1.89;100.00;100243.28;1373156;103;21196;-82
2022/11/23 11:53:10;;;;;;;16.53;7.40;;;;;;;1.93;100.00;100227.45;1377373;102;21202;-82
2022/11/23 11:56:13;;;;;;;23.10;9.60;;;;;;;1.94;100.00;100227.80;1350607;105;21554;-80
2022/11/23 11:58:41;;;;;;;27.13;12.37;;;;;;;1.95;100.00;100225.98;1353541;104;21207;-76
2022/11/23 12:01:34;;;;;;;21.50;9.80;;;;;;;1.97;100.00;100228.92;1356975;105;21818;-78
2022/11/23 12:04:07;;;;;;;24.10;10.33;;;;;;;1.96;100.00;100243.70;1356941;105;21139;-77
2022/11/23 12:06:41;;;;;;;25.40;9.57;;;;;;;1.90;100.00;100243.17;1338696;106;21196;-77
2022/11/23 12:09:19;;;;;;;22.40;10.47;;;;;;;1.90;100.00;100254.33;1302659;109;21205;-76
2022/11/23 12:11:46;;;;;;;20.13;8.90;;;;;;;1.90;100.00;100252.50;1291421;109;21193;-77
2022/11/23 12:14:13;;;;;;;21.40;9.60;;;;;;;1.86;100.00;100247.03;1293050;109;21186;-79
2022/11/23 12:17:19;;;;;;;23.63;10.40;;;;;;;1.83;100.00;100249.06;1286396;109;21733;-76
2022/11/23 12:20:02;;;;;;;22.13;10.03;;;;;;;1.80;100.00;100244.78;1286256;112;21261;-76
